sensor_id;sensor_type;location;lat;lon;timestamp;temperature;humidity
41256;DHT22;26989;45.524;10.938;2024-03-23T00:54:38;10.90;99.90
41256;DHT22;26989;45.524;10.938;2024-03-23T00:57:04;10.80;99.90
41256;DHT22;26989;45.524;10.938;2024-03-23T00:59:30;10.90;99.90
41256;DHT22;26989;45.524;10.938;2024-03-23T01:01:56;11.10;99.90
41256;DHT22;26989;45.524;10.938;2024-03-23T01:04:22;11.10;99.90
41256;DHT22;26989;45.524;10.938;2024-03-23T01:06:48;11.00;99.90
41256;DHT22;26989;45.524;10.938;2024-03-23T01:09:14;11.00;99.90
41256;DHT22;26989;45.524;10.938;2024-03-23T01:11:40;11.10;99.90
41256;DHT22;26989;45.524;10.938;2024-03-23T01:14:06;11.10;99.90
41256;DHT22;26989;45.524;10.938;2024-03-23T01:16:32;11.10;99.90
41256;DHT22;26989;45.524;10.938;2024-03-23T01:18:58;11.00;99.90
41256;DHT22;26989;45.524;10.938;2024-03-23T01:21:24;11.00;99.90
41256;DHT22;26989;45.524;10.938;2024-03-23T01:23:50;11.00;99.90
41256;DHT22;26989;45.524;10.938;2024-03-23T01:26:16;11.00;99.90
41256;DHT22;26989;45.524;10.938;2024-03-23T01:28:42;10.90;99.90
41256;DHT22;26989;45.524;10.938;2024-03-23T01:31:08;11.00;99.90
41256;DHT22;26989;45.524;10.938;2024-03-23T01:33:33;11.00;99.90
41256;DHT22;26989;45.524;10.938;2024-03-23T01:35:59;11.10;99.90
41256;DHT22;26989;45.524;10.938;2024-03-23T01:38:25;11.10;99.90
41256;DHT22;26989;45.524;10.938;2024-03-23T01:40:56;11.20;99.90
41256;DHT22;26989;45.524;10.938;2024-03-23T01:43:23;11.20;99.90
41256;DHT22;26989;45.524;10.938;2024-03-23T01:45:49;11.20;99.90
41256;DHT22;26989;45.524;10.938;2024-03-23T01:48:15;11.10;99.90
41256;DHT22;26989;45.524;10.938;2024-03-23T01:50:41;11.00;99.90
41256;DHT22;26989;45.524;10.938;2024-03-23T01:53:07;11.00;99.90
41256;DHT22;26989;45.524;10.938;2024-03-23T01:55:33;11.00;99.90
41256;DHT22;26989;45.524;10.938;2024-03-23T01:57:59;10.90;99.90
41256;DHT22;26989;45.524;10.938;2024-03-23T02:00:25;10.80;99.90
41256;DHT22;26989;45.524;10.938;2024-03-23T02:02:53;10.80;99.90
41256;DHT22;26989;45.524;10.938;2024-03-23T02:05:20;10.70;99.90
41256;DHT22;26989;45.524;10.938;2024-03-23T02:07:47;10.70;99.90
41256;DHT22;26989;45.524;10.938;2024-03-23T02:10:13;10.70;99.90
41256;DHT22;26989;45.524;10.938;2024-03-23T02:12:39;10.70;99.90
41256;DHT22;26989;45.524;10.938;2024-03-23T02:15:05;10.60;99.90
41256;DHT22;26989;45.524;10.938;2024-03-23T02:17:35;10.60;99.90
41256;DHT22;26989;45.524;10.938;2024-03-23T02:20:02;10.60;99.90
41256;DHT22;26989;45.524;10.938;2024-03-23T02:22:38;10.60;99.90
41256;DHT22;26989;45.524;10.938;2024-03-23T02:25:04;10.50;99.90
41256;DHT22;26989;45.524;10.938;2024-03-23T02:27:30;10.50;99.90
41256;DHT22;26989;45.524;10.938;2024-03-23T02:29:56;10.40;99.90
41256;DHT22;26989;45.524;10.938;2024-03-23T02:32:22;10.50;99.90
41256;DHT22;26989;45.524;10.938;2024-03-23T02:34:48;10.40;99.90
41256;DHT22;26989;45.524;10.938;2024-03-23T02:37:14;10.40;99.90
41256;DHT22;26989;45.524;10.938;2024-03-23T02:39:40;10.30;99.90
41256;DHT22;26989;45.524;10.938;2024-03-23T02:42:06;10.40;99.90
41256;DHT22;26989;45.524;10.938;2024-03-23T02:44:32;10.50;99.90
41256;DHT22;26989;45.524;10.938;2024-03-23T02:46:57;10.40;99.90
41256;DHT22;26989;45.524;10.938;2024-03-23T02:49:23;10.50;99.90
41256;DHT22;26989;45.524;10.938;2024-03-23T02:51:49;10.50;99.90
41256;DHT22;26989;45.524;10.938;2024-03-23T02:54:15;10.50;99.90
41256;DHT22;26989;45.524;10.938;2024-03-23T02:56:41;10.50;99.90
41256;DHT22;26989;45.524;10.938;2024-03-23T02:59:06;10.30;99.90
41256;DHT22;26989;45.524;10.938;2024-03-23T03:01:32;10.20;99.90
41256;DHT22;26989;45.524;10.938;2024-03-23T03:03:58;10.20;99.90
41256;DHT22;26989;45.524;10.938;2024-03-23T03:06:27;10.20;99.90
41256;DHT22;26989;45.524;10.938;2024-03-23T03:08:53;10.20;99.90
41256;DHT22;26989;45.524;10.938;2024-03-23T03:11:19;10.20;99.90
41256;DHT22;26989;45.524;10.938;2024-03-23T03:13:45;10.10;99.90
41256;DHT22;26989;45.524;10.938;2024-03-23T03:16:11;10.10;99.90
41256;DHT22;26989;45.524;10.938;2024-03-23T03:18:37;10.10;99.90
41256;DHT22;26989;45.524;10.938;2024-03-23T03:21:04;10.10;99.90
41256;DHT22;26989;45.524;10.938;2024-03-23T03:23:31;10.10;99.90
41256;DHT22;26989;45.524;10.938;2024-03-23T03:25:57;10.20;99.90
41256;DHT22;26989;45.524;10.938;2024-03-23T03:28:23;10.20;99.90
41256;DHT22;26989;45.524;10.938;2024-03-23T03:30:49;10.20;99.90
41256;DHT22;26989;45.524;10.938;2024-03-23T03:33:15;10.20;99.90
41256;DHT22;26989;45.524;10.938;2024-03-23T03:35:41;10.20;99.90
41256;DHT22;26989;45.524;10.938;2024-03-23T03:38:07;10.20;99.90
41256;DHT22;26989;45.524;10.938;2024-03-23T03:40:33;10.10;99.90
41256;DHT22;26989;45.524;10.938;2024-03-23T03:42:58;10.10;99.90
41256;DHT22;26989;45.524;10.938;2024-03-23T03:45:24;10.10;99.90
41256;DHT22;26989;45.524;10.938;2024-03-23T03:47:50;10.10;99.90
41256;DHT22;26989;45.524;10.938;2024-03-23T03:50:16;10.10;99.90
41256;DHT22;26989;45.524;10.938;2024-03-23T03:52:42;10.10;99.90
41256;DHT22;26989;45.524;10.938;2024-03-23T03:55:13;10.10;99.90
41256;DHT22;26989;45.524;10.938;2024-03-23T03:57:40;10.10;99.90
41256;DHT22;26989;45.524;10.938;2024-03-23T04:00:06;10.20;99.90
41256;DHT22;26989;45.524;10.938;2024-03-23T04:02:32;10.20;99.90
41256;DHT22;26989;45.524;10.938;2024-03-23T04:04:58;10.20;99.90
41256;DHT22;26989;45.524;10.938;2024-03-23T04:07:24;10.20;99.90
41256;DHT22;26989;45.524;10.938;2024-03-23T04:09:50;10.20;99.90
41256;DHT22;26989;45.524;10.938;2024-03-23T04:12:16;10.10;99.90
41256;DHT22;26989;45.524;10.938;2024-03-23T04:14:42;10.10;99.90
41256;DHT22;26989;45.524;10.938;2024-03-23T04:17:08;10.20;99.90
41256;DHT22;26989;45.524;10.938;2024-03-23T04:19:33;10.20;99.90
41256;DHT22;26989;45.524;10.938;2024-03-23T04:21:59;10.20;99.90
41256;DHT22;26989;45.524;10.938;2024-03-23T04:24:25;10.10;99.90
41256;DHT22;26989;45.524;10.938;2024-03-23T04:26:52;10.00;99.90
41256;DHT22;26989;45.524;10.938;2024-03-23T04:29:18;10.10;99.90
41256;DHT22;26989;45.524;10.938;2024-03-23T04:31:44;10.00;99.90
41256;DHT22;26989;45.524;10.938;2024-03-23T04:34:10;10.00;99.90
41256;DHT22;26989;45.524;10.938;2024-03-23T04:36:35;10.10;99.90
41256;DHT22;26989;45.524;10.938;2024-03-23T04:39:01;10.00;99.90
41256;DHT22;26989;45.524;10.938;2024-03-23T04:41:27;10.00;99.90
41256;DHT22;26989;45.524;10.938;2024-03-23T04:43:53;10.00;99.90
41256;DHT22;26989;45.524;10.938;2024-03-23T04:46:19;10.00;99.90
41256;DHT22;26989;45.524;10.938;2024-03-23T04:48:46;10.00;99.90
41256;DHT22;26989;45.524;10.938;2024-03-23T04:51:21;9.90;99.90
41256;DHT22;26989;45.524;10.938;2024-03-23T04:53:47;9.90;99.90
41256;DHT22;26989;45.524;10.938;2024-03-23T04:56:14;9.90;99.90
41256;DHT22;26989;45.524;10.938;2024-03-23T04:58:41;9.90;99.90
41256;DHT22;26989;45.524;10.938;2024-03-23T05:01:06;9.80;99.90
41256;DHT22;26989;45.524;10.938;2024-03-23T05:03:32;9.90;99.90
41256;DHT22;26989;45.524;10.938;2024-03-23T05:05:58;9.90;99.90
41256;DHT22;26989;45.524;10.938;2024-03-23T05:08:24;9.80;99.90
41256;DHT22;26989;45.524;10.938;2024-03-23T05:10:50;9.80;99.90
41256;DHT22;26989;45.524;10.938;2024-03-23T05:13:15;9.80;99.90
41256;DHT22;26989;45.524;10.938;2024-03-23T05:15:41;9.80;99.90
41256;DHT22;26989;45.524;10.938;2024-03-23T05:18:07;9.80;99.90
41256;DHT22;26989;45.524;10.938;2024-03-23T05:20:33;9.90;99.90
41256;DHT22;26989;45.524;10.938;2024-03-23T05:22:59;10.00;99.90
41256;DHT22;26989;45.524;10.938;2024-03-23T05:25:25;10.00;99.90
41256;DHT22;26989;45.524;10.938;2024-03-23T05:27:50;10.00;99.90
41256;DHT22;26989;45.524;10.938;2024-03-23T05:30:16;10.10;99.90
41256;DHT22;26989;45.524;10.938;2024-03-23T05:32:42;10.20;99.90
41256;DHT22;26989;45.524;10.938;2024-03-23T05:35:09;10.30;99.90
41256;DHT22;26989;45.524;10.938;2024-03-23T05:37:35;10.40;99.90
41256;DHT22;26989;45.524;10.938;2024-03-23T05:40:02;10.50;99.90
41256;DHT22;26989;45.524;10.938;2024-03-23T05:42:29;10.50;99.90
41256;DHT22;26989;45.524;10.938;2024-03-23T05:44:55;10.70;99.90
41256;DHT22;26989;45.524;10.938;2024-03-23T05:47:21;10.70;99.90
41256;DHT22;26989;45.524;10.938;2024-03-23T05:49:46;10.70;99.90
41256;DHT22;26989;45.524;10.938;2024-03-23T05:52:13;10.70;99.90
41256;DHT22;26989;45.524;10.938;2024-03-23T05:54:39;10.70;99.90
41256;DHT22;26989;45.524;10.938;2024-03-23T05:57:05;10.60;99.90
41256;DHT22;26989;45.524;10.938;2024-03-23T05:59:33;10.60;99.90
41256;DHT22;26989;45.524;10.938;2024-03-23T06:01:59;10.60;99.90
41256;DHT22;26989;45.524;10.938;2024-03-23T06:04:25;10.70;99.90
41256;DHT22;26989;45.524;10.938;2024-03-23T06:06:51;10.80;99.90
41256;DHT22;26989;45.524;10.938;2024-03-23T06:09:20;10.90;99.90
41256;DHT22;26989;45.524;10.938;2024-03-23T06:11:46;11.00;99.90
41256;DHT22;26989;45.524;10.938;2024-03-23T06:14:12;11.20;99.90
41256;DHT22;26989;45.524;10.938;2024-03-23T06:16:38;11.20;99.90
41256;DHT22;26989;45.524;10.938;2024-03-23T06:19:04;11.40;99.90
41256;DHT22;26989;45.524;10.938;2024-03-23T06:21:32;11.40;99.90
41256;DHT22;26989;45.524;10.938;2024-03-23T06:23:59;11.50;99.90
41256;DHT22;26989;45.524;10.938;2024-03-23T06:26:25;11.60;99.90
41256;DHT22;26989;45.524;10.938;2024-03-23T06:28:50;12.00;99.90
41256;DHT22;26989;45.524;10.938;2024-03-23T06:31:16;12.40;99.90
41256;DHT22;26989;45.524;10.938;2024-03-23T06:33:42;13.00;99.90
41256;DHT22;26989;45.524;10.938;2024-03-23T06:36:11;13.40;99.90
41256;DHT22;26989;45.524;10.938;2024-03-23T06:38:38;12.40;99.90
41256;DHT22;26989;45.524;10.938;2024-03-23T06:41:07;12.20;99.90
41256;DHT22;26989;45.524;10.938;2024-03-23T06:43:33;12.20;99.90
41256;DHT22;26989;45.524;10.938;2024-03-23T06:45:59;12.30;99.90
41256;DHT22;26989;45.524;10.938;2024-03-23T06:48:25;12.50;99.90
41256;DHT22;26989;45.524;10.938;2024-03-23T06:50:56;12.50;99.90
41256;DHT22;26989;45.524;10.938;2024-03-23T06:53:22;12.60;99.90
41256;DHT22;26989;45.524;10.938;2024-03-23T06:55:55;12.70;99.90
41256;DHT22;26989;45.524;10.938;2024-03-23T06:58:23;12.90;99.90
41256;DHT22;26989;45.524;10.938;2024-03-23T07:00:49;13.00;99.90
41256;DHT22;26989;45.524;10.938;2024-03-23T07:03:16;13.10;99.90
41256;DHT22;26989;45.524;10.938;2024-03-23T07:05:42;13.20;99.90
41256;DHT22;26989;45.524;10.938;2024-03-23T07:08:08;13.30;99.90
41256;DHT22;26989;45.524;10.938;2024-03-23T07:10:34;13.50;99.90
41256;DHT22;26989;45.524;10.938;2024-03-23T07:13:01;13.70;99.90
41256;DHT22;26989;45.524;10.938;2024-03-23T07:15:27;13.80;99.90
41256;DHT22;26989;45.524;10.938;2024-03-23T07:17:53;14.00;99.90
41256;DHT22;26989;45.524;10.938;2024-03-23T07:20:19;14.00;99.90
41256;DHT22;26989;45.524;10.938;2024-03-23T07:22:46;14.10;99.90
41256;DHT22;26989;45.524;10.938;2024-03-23T07:25:13;14.30;99.90
41256;DHT22;26989;45.524;10.938;2024-03-23T07:27:39;14.40;99.90
41256;DHT22;26989;45.524;10.938;2024-03-23T07:30:06;14.60;99.90
41256;DHT22;26989;45.524;10.938;2024-03-23T07:32:32;14.70;99.90
41256;DHT22;26989;45.524;10.938;2024-03-23T07:34:58;14.70;99.90
41256;DHT22;26989;45.524;10.938;2024-03-23T07:37:24;14.70;99.90
41256;DHT22;26989;45.524;10.938;2024-03-23T07:39:49;14.80;99.90
41256;DHT22;26989;45.524;10.938;2024-03-23T07:42:15;14.90;99.90
41256;DHT22;26989;45.524;10.938;2024-03-23T07:44:41;14.90;99.90
41256;DHT22;26989;45.524;10.938;2024-03-23T07:47:07;15.00;99.90
41256;DHT22;26989;45.524;10.938;2024-03-23T07:49:33;15.10;99.90
41256;DHT22;26989;45.524;10.938;2024-03-23T07:51:59;15.30;99.90
41256;DHT22;26989;45.524;10.938;2024-03-23T07:54:25;15.40;99.90
41256;DHT22;26989;45.524;10.938;2024-03-23T07:56:50;15.50;99.90
41256;DHT22;26989;45.524;10.938;2024-03-23T07:59:16;15.70;99.90
41256;DHT22;26989;45.524;10.938;2024-03-23T08:01:44;15.80;99.90
41256;DHT22;26989;45.524;10.938;2024-03-23T08:04:10;15.90;99.90
41256;DHT22;26989;45.524;10.938;2024-03-23T08:06:36;15.80;99.90
41256;DHT22;26989;45.524;10.938;2024-03-23T08:09:03;15.70;99.90
41256;DHT22;26989;45.524;10.938;2024-03-23T08:11:31;15.70;99.90
41256;DHT22;26989;45.524;10.938;2024-03-23T08:13:58;15.80;99.90
41256;DHT22;26989;45.524;10.938;2024-03-23T08:16:24;15.90;99.90
41256;DHT22;26989;45.524;10.938;2024-03-23T08:18:53;15.90;99.90
41256;DHT22;26989;45.524;10.938;2024-03-23T08:21:23;15.90;99.90
41256;DHT22;26989;45.524;10.938;2024-03-23T08:23:51;15.90;99.90
41256;DHT22;26989;45.524;10.938;2024-03-23T08:26:17;15.90;99.90
41256;DHT22;26989;45.524;10.938;2024-03-23T08:28:43;16.00;99.90
41256;DHT22;26989;45.524;10.938;2024-03-23T08:31:11;16.10;99.90
41256;DHT22;26989;45.524;10.938;2024-03-23T08:33:37;16.00;99.90
41256;DHT22;26989;45.524;10.938;2024-03-23T08:36:06;16.10;99.90
41256;DHT22;26989;45.524;10.938;2024-03-23T08:38:33;16.10;99.90
41256;DHT22;26989;45.524;10.938;2024-03-23T08:41:06;16.20;99.90
41256;DHT22;26989;45.524;10.938;2024-03-23T08:43:40;16.20;99.90
41256;DHT22;26989;45.524;10.938;2024-03-23T08:46:10;16.20;99.90
41256;DHT22;26989;45.524;10.938;2024-03-23T08:48:38;16.20;99.90
41256;DHT22;26989;45.524;10.938;2024-03-23T08:51:06;16.20;99.90
41256;DHT22;26989;45.524;10.938;2024-03-23T08:53:32;16.20;99.90
41256;DHT22;26989;45.524;10.938;2024-03-23T08:55:58;16.10;99.90
41256;DHT22;26989;45.524;10.938;2024-03-23T08:58:26;16.20;99.90
41256;DHT22;26989;45.524;10.938;2024-03-23T09:00:52;16.30;99.90
41256;DHT22;26989;45.524;10.938;2024-03-23T09:03:18;16.40;99.90
41256;DHT22;26989;45.524;10.938;2024-03-23T09:05:44;16.20;99.90
41256;DHT22;26989;45.524;10.938;2024-03-23T09:08:10;16.30;99.90
41256;DHT22;26989;45.524;10.938;2024-03-23T09:10:39;16.40;99.90
41256;DHT22;26989;45.524;10.938;2024-03-23T09:13:05;16.40;99.90
41256;DHT22;26989;45.524;10.938;2024-03-23T09:15:33;16.70;99.90
41256;DHT22;26989;45.524;10.938;2024-03-23T09:18:00;16.60;99.90
41256;DHT22;26989;45.524;10.938;2024-03-23T09:20:26;16.70;99.90
41256;DHT22;26989;45.524;10.938;2024-03-23T09:22:52;16.60;99.90
41256;DHT22;26989;45.524;10.938;2024-03-23T09:25:18;16.50;99.90
41256;DHT22;26989;45.524;10.938;2024-03-23T09:27:49;16.60;99.90
41256;DHT22;26989;45.524;10.938;2024-03-23T09:30:16;16.60;99.90
41256;DHT22;26989;45.524;10.938;2024-03-23T09:32:44;16.60;99.90
41256;DHT22;26989;45.524;10.938;2024-03-23T09:35:10;16.60;99.90
41256;DHT22;26989;45.524;10.938;2024-03-23T09:37:40;16.60;99.90
41256;DHT22;26989;45.524;10.938;2024-03-23T09:40:09;16.70;99.90
41256;DHT22;26989;45.524;10.938;2024-03-23T09:42:35;16.80;99.90
41256;DHT22;26989;45.524;10.938;2024-03-23T09:45:01;16.80;99.90
41256;DHT22;26989;45.524;10.938;2024-03-23T09:47:28;16.60;99.90
41256;DHT22;26989;45.524;10.938;2024-03-23T09:49:57;16.80;99.90
41256;DHT22;26989;45.524;10.938;2024-03-23T09:52:23;16.80;99.90
41256;DHT22;26989;45.524;10.938;2024-03-23T09:55:04;17.00;99.90
41256;DHT22;26989;45.524;10.938;2024-03-23T09:57:30;17.00;99.90
41256;DHT22;26989;45.524;10.938;2024-03-23T09:59:56;16.80;99.90
41256;DHT22;26989;45.524;10.938;2024-03-23T10:02:24;17.00;99.90
41256;DHT22;26989;45.524;10.938;2024-03-23T10:04:51;17.00;99.90
41256;DHT22;26989;45.524;10.938;2024-03-23T10:07:21;17.00;99.90
41256;DHT22;26989;45.524;10.938;2024-03-23T10:09:48;17.00;99.90
41256;DHT22;26989;45.524;10.938;2024-03-23T10:12:16;16.90;99.90
41256;DHT22;26989;45.524;10.938;2024-03-23T10:14:43;17.00;99.90
41256;DHT22;26989;45.524;10.938;2024-03-23T10:19:49;17.20;99.90
41256;DHT22;26989;45.524;10.938;2024-03-23T10:22:19;17.20;99.90
41256;DHT22;26989;45.524;10.938;2024-03-23T10:24:46;17.20;99.90
41256;DHT22;26989;45.524;10.938;2024-03-23T10:27:16;17.30;99.90
41256;DHT22;26989;45.524;10.938;2024-03-23T10:29:46;17.40;99.90
41256;DHT22;26989;45.524;10.938;2024-03-23T10:32:17;17.50;99.90
41256;DHT22;26989;45.524;10.938;2024-03-23T10:34:45;17.40;99.90
41256;DHT22;26989;45.524;10.938;2024-03-23T10:37:11;17.40;99.90
41256;DHT22;26989;45.524;10.938;2024-03-23T10:39:39;17.30;99.90
41256;DHT22;26989;45.524;10.938;2024-03-23T10:42:07;17.30;99.90
41256;DHT22;26989;45.524;10.938;2024-03-23T10:44:40;17.30;99.90
41256;DHT22;26989;45.524;10.938;2024-03-23T10:47:06;17.30;99.90
41256;DHT22;26989;45.524;10.938;2024-03-23T10:49:34;17.50;99.90
41256;DHT22;26989;45.524;10.938;2024-03-23T10:52:04;17.20;99.90
41256;DHT22;26989;45.524;10.938;2024-03-23T10:54:31;17.20;99.90
41256;DHT22;26989;45.524;10.938;2024-03-23T10:57:10;17.50;99.90
41256;DHT22;26989;45.524;10.938;2024-03-23T10:59:40;17.90;99.90
41256;DHT22;26989;45.524;10.938;2024-03-23T11:02:06;18.00;99.90
41256;DHT22;26989;45.524;10.938;2024-03-23T11:04:35;18.00;99.90
41256;DHT22;26989;45.524;10.938;2024-03-23T11:07:02;18.00;99.90
41256;DHT22;26989;45.524;10.938;2024-03-23T11:14:55;17.60;99.90
41256;DHT22;26989;45.524;10.938;2024-03-23T11:17:23;17.60;99.90
41256;DHT22;26989;45.524;10.938;2024-03-23T11:20:04;17.90;99.90
41256;DHT22;26989;45.524;10.938;2024-03-23T11:25:14;17.90;99.90
41256;DHT22;26989;45.524;10.938;2024-03-23T11:27:40;18.40;99.90
41256;DHT22;26989;45.524;10.938;2024-03-23T11:32:39;18.90;99.90
41256;DHT22;26989;45.524;10.938;2024-03-23T11:35:06;19.00;99.90
41256;DHT22;26989;45.524;10.938;2024-03-23T11:37:32;19.20;99.90
41256;DHT22;26989;45.524;10.938;2024-03-23T11:39:57;19.20;99.90
41256;DHT22;26989;45.524;10.938;2024-03-23T11:42:23;19.30;99.90
41256;DHT22;26989;45.524;10.938;2024-03-23T11:44:49;19.30;99.90
41256;DHT22;26989;45.524;10.938;2024-03-23T11:47:15;19.40;99.90
41256;DHT22;26989;45.524;10.938;2024-03-23T11:49:41;19.40;99.90
41256;DHT22;26989;45.524;10.938;2024-03-23T11:52:07;19.40;99.90
41256;DHT22;26989;45.524;10.938;2024-03-23T11:54:36;19.30;99.90
41256;DHT22;26989;45.524;10.938;2024-03-23T11:57:04;19.20;99.90
41256;DHT22;26989;45.524;10.938;2024-03-23T11:59:39;19.20;99.90
41256;DHT22;26989;45.524;10.938;2024-03-23T12:02:11;19.10;99.90
41256;DHT22;26989;45.524;10.938;2024-03-23T12:04:38;19.00;99.90
41256;DHT22;26989;45.524;10.938;2024-03-23T12:07:19;18.70;99.90
41256;DHT22;26989;45.524;10.938;2024-03-23T12:10:02;18.80;99.90
41256;DHT22;26989;45.524;10.938;2024-03-23T12:12:28;19.00;99.90
41256;DHT22;26989;45.524;10.938;2024-03-23T12:15:07;19.30;99.90
41256;DHT22;26989;45.524;10.938;2024-03-23T12:17:34;19.50;99.90
41256;DHT22;26989;45.524;10.938;2024-03-23T12:20:01;19.80;99.90
41256;DHT22;26989;45.524;10.938;2024-03-23T12:22:27;20.00;99.90
41256;DHT22;26989;45.524;10.938;2024-03-23T12:24:55;20.30;99.90
41256;DHT22;26989;45.524;10.938;2024-03-23T12:27:21;20.20;99.90
41256;DHT22;26989;45.524;10.938;2024-03-23T12:29:47;20.40;99.90
41256;DHT22;26989;45.524;10.938;2024-03-23T12:32:14;20.60;99.90
41256;DHT22;26989;45.524;10.938;2024-03-23T12:34:40;20.80;99.90
41256;DHT22;26989;45.524;10.938;2024-03-23T12:37:06;20.60;99.90
41256;DHT22;26989;45.524;10.938;2024-03-23T12:39:32;20.60;99.90
41256;DHT22;26989;45.524;10.938;2024-03-23T12:42:01;20.60;99.90
41256;DHT22;26989;45.524;10.938;2024-03-23T12:44:28;20.40;99.90
41256;DHT22;26989;45.524;10.938;2024-03-23T12:46:54;20.20;99.90
41256;DHT22;26989;45.524;10.938;2024-03-23T12:49:20;20.30;99.90
41256;DHT22;26989;45.524;10.938;2024-03-23T12:51:53;20.60;99.90
41256;DHT22;26989;45.524;10.938;2024-03-23T12:54:20;21.00;99.90
41256;DHT22;26989;45.524;10.938;2024-03-23T12:56:46;21.20;99.90
41256;DHT22;26989;45.524;10.938;2024-03-23T12:59:12;20.80;99.90
41256;DHT22;26989;45.524;10.938;2024-03-23T13:01:39;20.10;99.90
41256;DHT22;26989;45.524;10.938;2024-03-23T13:05:23;19.40;99.90
41256;DHT22;26989;45.524;10.938;2024-03-23T13:07:49;19.40;99.90
41256;DHT22;26989;45.524;10.938;2024-03-23T13:10:15;19.70;99.90
41256;DHT22;26989;45.524;10.938;2024-03-23T13:12:41;20.20;99.90
41256;DHT22;26989;45.524;10.938;2024-03-23T13:15:08;20.20;99.90
41256;DHT22;26989;45.524;10.938;2024-03-23T13:17:34;20.30;99.90
41256;DHT22;26989;45.524;10.938;2024-03-23T13:20:00;20.20;99.90
41256;DHT22;26989;45.524;10.938;2024-03-23T13:22:26;20.20;99.90
41256;DHT22;26989;45.524;10.938;2024-03-23T13:24:52;20.10;99.90
41256;DHT22;26989;45.524;10.938;2024-03-23T13:27:17;20.00;99.90
41256;DHT22;26989;45.524;10.938;2024-03-23T13:29:44;20.10;99.90
41256;DHT22;26989;45.524;10.938;2024-03-23T13:32:12;20.50;99.90
41256;DHT22;26989;45.524;10.938;2024-03-23T13:34:38;20.30;99.90
41256;DHT22;26989;45.524;10.938;2024-03-23T13:37:04;20.30;99.90
41256;DHT22;26989;45.524;10.938;2024-03-23T13:39:30;20.00;99.90
41256;DHT22;26989;45.524;10.938;2024-03-23T13:41:56;19.40;99.90
41256;DHT22;26989;45.524;10.938;2024-03-23T13:44:22;19.20;99.90
41256;DHT22;26989;45.524;10.938;2024-03-23T13:46:48;19.10;99.90
41256;DHT22;26989;45.524;10.938;2024-03-23T13:49:30;19.30;99.90
41256;DHT22;26989;45.524;10.938;2024-03-23T13:51:58;19.60;99.90
41256;DHT22;26989;45.524;10.938;2024-03-23T13:54:25;20.10;99.90
41256;DHT22;26989;45.524;10.938;2024-03-23T13:56:52;20.20;99.90
41256;DHT22;26989;45.524;10.938;2024-03-23T13:59:18;20.20;99.90
41256;DHT22;26989;45.524;10.938;2024-03-23T14:01:45;19.70;99.90
41256;DHT22;26989;45.524;10.938;2024-03-23T14:04:14;19.90;99.90
41256;DHT22;26989;45.524;10.938;2024-03-23T14:06:42;19.80;99.90
41256;DHT22;26989;45.524;10.938;2024-03-23T14:09:11;19.70;99.90
41256;DHT22;26989;45.524;10.938;2024-03-23T14:11:37;19.60;99.90
41256;DHT22;26989;45.524;10.938;2024-03-23T14:14:03;19.70;99.90
41256;DHT22;26989;45.524;10.938;2024-03-23T14:16:30;19.60;99.90
41256;DHT22;26989;45.524;10.938;2024-03-23T14:18:56;19.70;99.90
41256;DHT22;26989;45.524;10.938;2024-03-23T14:21:22;20.00;99.90
41256;DHT22;26989;45.524;10.938;2024-03-23T14:23:48;20.00;99.90
41256;DHT22;26989;45.524;10.938;2024-03-23T14:26:14;20.10;99.90
41256;DHT22;26989;45.524;10.938;2024-03-23T14:28:40;20.00;99.90
41256;DHT22;26989;45.524;10.938;2024-03-23T14:31:06;19.90;99.90
41256;DHT22;26989;45.524;10.938;2024-03-23T14:33:41;19.90;99.90
41256;DHT22;26989;45.524;10.938;2024-03-23T14:36:14;19.70;99.90
41256;DHT22;26989;45.524;10.938;2024-03-23T14:38:40;19.90;99.90
41256;DHT22;26989;45.524;10.938;2024-03-23T14:41:06;20.10;99.90
41256;DHT22;26989;45.524;10.938;2024-03-23T14:43:32;20.10;99.90
41256;DHT22;26989;45.524;10.938;2024-03-23T14:46:15;20.30;99.90
41256;DHT22;26989;45.524;10.938;2024-03-23T14:48:42;20.40;99.90
41256;DHT22;26989;45.524;10.938;2024-03-23T14:51:10;20.40;99.90
41256;DHT22;26989;45.524;10.938;2024-03-23T14:53:45;20.30;99.90
41256;DHT22;26989;45.524;10.938;2024-03-23T14:56:11;20.20;99.90
41256;DHT22;26989;45.524;10.938;2024-03-23T14:58:40;20.10;99.90
41256;DHT22;26989;45.524;10.938;2024-03-23T15:01:08;20.10;99.90
41256;DHT22;26989;45.524;10.938;2024-03-23T15:03:37;20.00;99.90
41256;DHT22;26989;45.524;10.938;2024-03-23T15:06:05;19.90;99.90
41256;DHT22;26989;45.524;10.938;2024-03-23T15:08:32;19.60;99.90
41256;DHT22;26989;45.524;10.938;2024-03-23T15:11:01;19.60;99.90
41256;DHT22;26989;45.524;10.938;2024-03-23T15:13:35;19.40;99.90
41256;DHT22;26989;45.524;10.938;2024-03-23T15:16:01;19.10;99.90
41256;DHT22;26989;45.524;10.938;2024-03-23T15:18:29;19.00;99.90
41256;DHT22;26989;45.524;10.938;2024-03-23T15:21:00;18.90;99.90
41256;DHT22;26989;45.524;10.938;2024-03-23T15:23:29;18.70;99.90
41256;DHT22;26989;45.524;10.938;2024-03-23T15:26:00;18.50;99.90
41256;DHT22;26989;45.524;10.938;2024-03-23T15:28:27;18.40;99.90
41256;DHT22;26989;45.524;10.938;2024-03-23T15:31:10;18.20;99.90
41256;DHT22;26989;45.524;10.938;2024-03-23T15:33:36;18.10;99.90
41256;DHT22;26989;45.524;10.938;2024-03-23T15:36:02;17.90;99.90
41256;DHT22;26989;45.524;10.938;2024-03-23T15:38:28;17.80;99.90
41256;DHT22;26989;45.524;10.938;2024-03-23T15:40:57;17.70;99.90
41256;DHT22;26989;45.524;10.938;2024-03-23T15:43:23;17.80;99.90
41256;DHT22;26989;45.524;10.938;2024-03-23T15:45:59;17.70;99.90
41256;DHT22;26989;45.524;10.938;2024-03-23T15:48:29;17.80;99.90
41256;DHT22;26989;45.524;10.938;2024-03-23T15:50:59;17.80;99.90
41256;DHT22;26989;45.524;10.938;2024-03-23T15:53:26;17.80;99.90
41256;DHT22;26989;45.524;10.938;2024-03-23T15:55:59;17.70;99.90
41256;DHT22;26989;45.524;10.938;2024-03-23T15:58:26;17.70;99.90
41256;DHT22;26989;45.524;10.938;2024-03-23T16:00:59;17.70;99.90
41256;DHT22;26989;45.524;10.938;2024-03-23T16:03:26;17.70;99.90
41256;DHT22;26989;45.524;10.938;2024-03-23T16:05:53;17.60;99.90
41256;DHT22;26989;45.524;10.938;2024-03-23T16:08:20;17.70;99.90
41256;DHT22;26989;45.524;10.938;2024-03-23T16:10:46;17.50;99.90
41256;DHT22;26989;45.524;10.938;2024-03-23T16:13:12;17.40;99.90
41256;DHT22;26989;45.524;10.938;2024-03-23T16:15:38;17.20;99.90
41256;DHT22;26989;45.524;10.938;2024-03-23T16:18:04;17.00;99.90
41256;DHT22;26989;45.524;10.938;2024-03-23T16:20:30;16.80;99.90
41256;DHT22;26989;45.524;10.938;2024-03-23T16:22:57;16.70;99.90
41256;DHT22;26989;45.524;10.938;2024-03-23T16:25:23;16.80;99.90